Time;durP1;ratioP1;P1;durP2;ratioP2;P2;SDS_P1;SDS_P2;PMS_P1;PMS_P2;Temp;Humidity;BMP_temperature;BMP_pressure;BME280_temperature;BME280_humidity;BME280_pressure;Samples;Min_cycle;Max_cycle;Signal;HPM_P1;HPM_P2
2021/11/17 02:27:25;;;;;;;0.30;0.20;;;;;;;7.26;100.00;100685.25;5026200;28;20866;-51
2021/11/17 02:30:26;;;;;;;0.30;0.20;;;;;;;7.24;100.00;100676.44;5061306;28;20486;-51
2021/11/17 02:32:56;;;;;;;0.30;0.20;;;;;;;7.33;100.00;100681.66;5046118;28;20505;-51
2021/11/17 02:36:03;;;;;;;1.33;0.60;;;;;;;7.27;100.00;100676.44;5067620;28;20870;-51
2021/11/17 02:39:07;;;;;;;0.30;0.20;;;;;;;7.26;100.00;100676.44;5067795;28;20489;-51
2021/11/17 02:42:14;;;;;;;0.30;0.20;;;;;;;7.20;100.00;100676.50;5067823;28;21479;-51
2021/11/17 02:44:47;;;;;;;0.30;0.20;;;;;;;7.26;100.00;100679.06;5067651;28;21052;-50
2021/11/17 02:47:51;;;;;;;0.30;0.20;;;;;;;7.29;100.00;100679.06;5063834;28;20450;-50
2021/11/17 02:50:21;;;;;;;0.30;0.20;;;;;;;7.28;100.00;100675.56;5050221;28;20481;-51
2021/11/17 02:53:00;;;;;;;2.13;0.60;;;;;;;7.31;100.00;100677.28;5060442;28;20470;-51
2021/11/17 02:55:55;;;;;;;0.30;0.20;;;;;;;7.39;100.00;100683.38;5046527;28;20474;-51
2021/11/17 02:58:34;;;;;;;0.30;0.20;;;;;;;7.31;100.00;100686.09;5025915;28;20476;-51
2021/11/17 03:01:25;;;;;;;0.30;0.20;;;;;;;7.27;100.00;100684.38;5060349;28;20447;-51
2021/11/17 03:04:01;;;;;;;0.30;0.20;;;;;;;7.28;100.00;100682.63;5060910;28;20549;-51
2021/11/17 03:06:40;;;;;;;0.30;0.20;;;;;;;7.33;100.00;100681.66;5062338;28;20446;-51
2021/11/17 03:09:28;;;;;;;0.30;0.20;;;;;;;7.31;100.00;100685.22;5059684;28;20521;-51
2021/11/17 03:12:16;;;;;;;0.30;0.30;;;;;;;7.32;100.00;100679.91;5050307;28;20481;-51
2021/11/17 03:15:08;;;;;;;0.30;0.20;;;;;;;7.38;100.00;100679.84;5052776;28;20474;-51
2021/11/17 03:17:41;;;;;;;0.30;0.20;;;;;;;7.39;100.00;100683.38;5060221;28;20442;-51
2021/11/17 03:20:20;;;;;;;0.30;0.27;;;;;;;7.36;100.00;100681.63;5059884;28;20447;-51
2021/11/17 03:23:06;;;;;;;0.30;0.20;;;;;;;7.40;100.00;100682.47;5064416;28;20497;-51
2021/11/17 03:25:52;;;;;;;0.30;0.20;;;;;;;7.38;100.00;100677.19;5066781;28;20493;-51
2021/11/17 03:28:34;;;;;;;2.60;2.50;;;;;;;7.40;100.00;100677.19;5016193;28;20481;-51
2021/11/17 03:31:28;;;;;;;0.30;0.20;;;;;;;7.49;100.00;100686.81;5054227;28;20491;-51
2021/11/17 03:33:55;;;;;;;0.30;0.20;;;;;;;7.49;100.00;100676.22;5047262;28;20469;-50
2021/11/17 03:37:02;;;;;;;0.30;0.20;;;;;;;7.42;100.00;100678.94;5059883;28;20874;-50
2021/11/17 03:39:34;;;;;;;0.30;0.20;;;;;;;7.35;100.00;100673.72;5060476;28;20498;-52
2021/11/17 03:42:53;;;;;;;0.77;0.77;;;;;;;7.38;100.00;100676.31;5046817;28;20446;-50
2021/11/17 03:45:25;;;;;;;0.30;0.20;;;;;;;7.31;100.00;100672.00;4968056;28;20640;-52
2021/11/17 03:48:04;;;;;;;0.30;0.20;;;;;;;7.31;100.00;100666.72;5059340;28;20872;-50
2021/11/17 03:51:00;;;;;;;0.30;0.20;;;;;;;7.31;100.00;100669.34;5063091;28;20490;-52
2021/11/17 03:53:41;;;;;;;0.30;0.20;;;;;;;7.36;100.00;100664.91;5056157;28;20506;-52
2021/11/17 03:56:33;;;;;;;0.30;0.20;;;;;;;7.37;100.00;100666.66;5059553;28;21297;-50
2021/11/17 03:59:32;;;;;;;0.30;0.20;;;;;;;7.34;100.00;100674.63;5059648;28;20960;-50
2021/11/17 04:02:47;;;;;;;0.30;0.20;;;;;;;7.31;100.00;100679.94;5039440;28;20920;-50
2021/11/17 04:05:23;;;;;;;0.30;0.20;;;;;;;7.37;100.00;100680.75;5027642;28;20455;-50
2021/11/17 04:08:12;;;;;;;0.30;0.20;;;;;;;7.30;100.00;100679.06;5066131;28;20479;-50
2021/11/17 04:11:16;;;;;;;0.57;0.57;;;;;;;7.31;100.00;100685.22;5065711;28;20568;-51
2021/11/17 04:14:13;;;;;;;0.30;0.20;;;;;;;7.26;100.00;100685.25;5020252;28;20504;-49
2021/11/17 04:16:40;;;;;;;0.30;0.20;;;;;;;7.40;100.00;100677.19;5064919;28;20500;-51
2021/11/17 04:19:28;;;;;;;0.30;0.20;;;;;;;7.29;100.00;100685.25;5058866;28;20446;-49
2021/11/17 04:22:04;;;;;;;0.30;0.20;;;;;;;7.42;100.00;100688.66;5058447;28;20477;-51
2021/11/17 04:24:36;;;;;;;0.30;0.20;;;;;;;7.28;100.00;100688.78;5062487;28;20467;-51
2021/11/17 04:27:39;;;;;;;0.50;0.47;;;;;;;7.29;100.00;100685.25;5065943;28;20968;-51
2021/11/17 04:30:19;;;;;;;0.30;0.20;;;;;;;7.27;100.00;100687.03;5065501;28;20485;-51
2021/11/17 04:33:15;;;;;;;0.30;0.20;;;;;;;7.31;100.00;100687.88;5063309;28;20815;-50
2021/11/17 04:35:48;;;;;;;0.30;0.20;;;;;;;7.29;100.00;100687.88;5064070;28;20454;-51
2021/11/17 04:38:39;;;;;;;0.30;0.20;;;;;;;7.33;100.00;100688.72;5065400;28;20927;-49
2021/11/17 04:41:11;;;;;;;0.30;0.20;;;;;;;7.25;100.00;100682.63;5064971;28;20482;-51
2021/11/17 04:43:46;;;;;;;0.30;0.20;;;;;;;7.33;100.00;100691.38;5046633;28;20466;-50
2021/11/17 04:46:29;;;;;;;0.30;0.20;;;;;;;7.32;100.00;100693.13;5058686;28;20966;-50
2021/11/17 04:49:27;;;;;;;0.30;0.20;;;;;;;7.33;100.00;100702.81;5061401;28;20451;-51
2021/11/17 04:52:19;;;;;;;0.30;0.20;;;;;;;7.21;100.00;100704.69;5060657;28;20446;-50
2021/11/17 04:55:07;;;;;;;0.30;0.20;;;;;;;7.31;100.00;100711.66;5040995;28;20474;-50
2021/11/17 04:57:53;;;;;;;0.30;0.20;;;;;;;7.21;100.00;100707.34;5059232;28;20538;-51
2021/11/17 05:00:28;;;;;;;0.30;0.20;;;;;;;7.22;100.00;100717.88;5061096;28;20932;-50
2021/11/17 05:03:07;;;;;;;0.30;0.20;;;;;;;7.24;100.00;100720.53;5064594;28;21026;-50
2021/11/17 05:05:41;;;;;;;0.30;0.20;;;;;;;7.24;100.00;100724.03;5053089;28;20522;-50
2021/11/17 05:08:28;;;;;;;0.30;0.20;;;;;;;7.28;100.00;100717.88;5063706;28;20446;-50
2021/11/17 05:10:55;;;;;;;0.30;0.20;;;;;;;7.19;100.00;100717.94;5063614;28;20494;-50
2021/11/17 05:13:30;;;;;;;0.30;0.20;;;;;;;7.19;100.00;100714.41;5043973;28;20478;-51
2021/11/17 05:15:57;;;;;;;1.27;1.17;;;;;;;7.22;100.00;100717.88;5065729;28;20446;-51
2021/11/17 05:18:35;;;;;;;0.30;0.20;;;;;;;7.27;100.00;100724.03;5065527;28;20993;-50
2021/11/17 05:21:11;;;;;;;0.60;0.60;;;;;;;7.26;100.00;100726.66;5064122;28;21005;-50
2021/11/17 05:24:05;;;;;;;0.30;0.20;;;;;;;7.31;100.00;100732.81;5065076;28;20462;-50
2021/11/17 05:26:47;;;;;;;0.30;0.20;;;;;;;7.23;100.00;100738.16;5065251;28;20540;-51
2021/11/17 05:29:35;;;;;;;0.30;0.20;;;;;;;7.22;100.00;100746.97;5043224;28;20445;-50
2021/11/17 05:32:38;;;;;;;0.30;0.20;;;;;;;7.20;100.00;100743.47;5058130;28;20879;-50
2021/11/17 05:35:20;;;;;;;0.30;0.20;;;;;;;7.15;100.00;100742.63;5061719;28;20886;-51
2021/11/17 05:37:59;;;;;;;0.30;0.20;;;;;;;7.22;100.00;100746.09;5046767;28;20500;-52
2021/11/17 05:40:59;;;;;;;0.30;0.20;;;;;;;7.27;100.00;100749.59;5050735;28;20445;-50
2021/11/17 05:43:38;;;;;;;0.30;0.20;;;;;;;7.54;100.00;100756.41;5061880;28;20520;-50
2021/11/17 05:46:23;;;;;;;0.30;0.20;;;;;;;7.40;100.00;100761.81;5044280;28;20504;-51
2021/11/17 05:49:11;;;;;;;0.30;0.20;;;;;;;7.48;100.00;100761.75;5065247;28;20867;-51
2021/11/17 05:51:59;;;;;;;2.53;1.53;;;;;;;7.50;100.00;100767.91;5068907;28;20490;-51
2021/11/17 05:54:43;;;;;;;0.30;0.20;;;;;;;7.58;100.00;100779.31;5068683;28;20466;-52
2021/11/17 05:57:55;;;;;;;0.30;0.20;;;;;;;7.40;100.00;100773.28;5067344;28;20484;-50
2021/11/17 06:00:34;;;;;;;0.30;0.20;;;;;;;7.31;100.00;100767.19;4999363;28;20463;-50
2021/11/17 06:03:24;;;;;;;0.30;0.20;;;;;;;7.53;100.00;100768.75;5048945;28;20458;-50
2021/11/17 06:05:51;;;;;;;0.30;0.20;;;;;;;7.78;100.00;100769.41;5061188;28;20446;-51
2021/11/17 06:08:17;;;;;;;0.30;0.20;;;;;;;7.61;100.00;100768.69;5065021;28;20446;-50
2021/11/17 06:10:51;;;;;;;2.50;2.50;;;;;;;7.54;100.00;100764.34;5067267;28;21030;-50
2021/11/17 06:13:18;;;;;;;0.30;0.20;;;;;;;7.52;100.00;100763.47;5057538;28;20482;-51
2021/11/17 06:15:47;;;;;;;0.30;0.20;;;;;;;7.65;100.00;100759.84;5061144;28;20453;-50
2021/11/17 06:18:18;;;;;;;0.30;0.20;;;;;;;7.60;100.00;100769.59;5063028;28;20447;-50
2021/11/17 06:20:47;;;;;;;0.30;0.20;;;;;;;7.68;100.00;100773.06;5068028;28;20466;-50
2021/11/17 06:23:26;;;;;;;0.30;0.20;;;;;;;7.81;100.00;100773.78;5067734;28;20882;-51
2021/11/17 06:25:56;;;;;;;0.30;0.20;;;;;;;7.69;100.00;100780.09;5066609;28;20458;-51
2021/11/17 06:28:26;;;;;;;0.30;0.20;;;;;;;7.81;100.00;100789.69;5068010;28;20486;-50
2021/11/17 06:30:55;;;;;;;0.30;0.20;;;;;;;7.73;100.00;100795.94;5056903;28;20554;-50
2021/11/17 06:33:22;;;;;;;0.30;0.17;;;;;;;7.47;100.00;100792.63;5053949;28;20474;-51
2021/11/17 06:35:49;;;;;;;0.30;0.20;;;;;;;7.55;100.00;100798.75;5064768;28;20454;-50
2021/11/17 06:38:17;;;;;;;0.30;0.20;;;;;;;7.22;100.00;100805.13;5067808;28;20474;-50
2021/11/17 06:40:46;;;;;;;0.30;0.20;;;;;;;7.48;100.00;100796.16;5064934;28;20555;-50
2021/11/17 06:43:13;;;;;;;0.30;0.20;;;;;;;7.41;100.00;100798.84;5060658;28;20837;-51
2021/11/17 06:45:59;;;;;;;0.30;0.20;;;;;;;7.67;100.00;100810.97;5063088;28;20887;-50
2021/11/17 06:48:27;;;;;;;0.30;0.20;;;;;;;7.66;100.00;100814.50;5061426;28;20484;-51
2021/11/17 06:50:54;;;;;;;0.30;0.20;;;;;;;7.50;100.00;100816.41;5060646;28;20483;-50
2021/11/17 06:53:23;;;;;;;0.30;0.20;;;;;;;7.30;100.00;100815.69;5066613;28;20470;-51
2021/11/17 06:55:50;;;;;;;0.30;0.20;;;;;;;7.19;100.00;100821.03;5067316;28;20495;-51
2021/11/17 06:58:17;;;;;;;0.60;0.60;;;;;;;7.07;100.00;100821.09;5062079;28;20449;-50
2021/11/17 07:00:46;;;;;;;0.30;0.20;;;;;;;7.04;100.00;100834.34;5060411;28;20443;-50
2021/11/17 07:03:14;;;;;;;0.30;0.20;;;;;;;7.04;100.00;100834.34;5065280;28;20570;-50
2021/11/17 07:05:43;;;;;;;0.30;0.20;;;;;;;6.97;100.00;100830.84;5043247;28;20463;-51
2021/11/17 07:08:10;;;;;;;0.30;0.20;;;;;;;6.89;100.00;100839.69;5064938;28;20538;-50
2021/11/17 07:10:38;;;;;;;0.30;0.20;;;;;;;6.89;100.00;100847.63;5066965;28;20547;-50
2021/11/17 07:13:06;;;;;;;0.30;0.20;;;;;;;6.86;100.00;100848.53;5051834;28;20482;-50
2021/11/17 07:15:34;;;;;;;0.30;0.20;;;;;;;6.92;100.00;100840.56;5060337;28;20554;-50
2021/11/17 07:18:02;;;;;;;0.30;0.20;;;;;;;6.91;100.00;100844.09;5064494;28;20906;-50
2021/11/17 07:20:29;;;;;;;0.30;0.20;;;;;;;7.08;100.00;100829.00;5067075;28;20450;-51
2021/11/17 07:22:55;;;;;;;0.30;0.20;;;;;;;7.06;100.00;100830.78;5062932;28;20465;-50
2021/11/17 07:25:23;;;;;;;0.30;0.20;;;;;;;7.02;100.00;100833.47;5060180;28;20450;-51
2021/11/17 07:27:52;;;;;;;0.30;0.20;;;;;;;7.15;100.00;100834.28;5063970;28;20451;-50
2021/11/17 07:30:21;;;;;;;0.30;0.20;;;;;;;7.24;100.00;100831.56;5066664;28;20487;-51
2021/11/17 07:32:49;;;;;;;0.30;0.20;;;;;;;7.31;100.00;100838.59;5063664;28;20496;-50
2021/11/17 07:35:18;;;;;;;0.30;0.20;;;;;;;7.26;100.00;100827.13;5059903;28;20457;-50
2021/11/17 07:37:46;;;;;;;0.30;0.20;;;;;;;7.27;100.00;100839.50;5062321;28;20454;-50
2021/11/17 07:40:13;;;;;;;1.93;0.83;;;;;;;7.36;100.00;100836.78;5048978;28;20477;-50
2021/11/17 07:42:41;;;;;;;0.30;0.20;;;;;;;7.37;100.00;100846.47;5064740;28;20446;-50
2021/11/17 07:45:14;;;;;;;0.30;0.20;;;;;;;7.45;100.00;100839.38;5059613;28;20446;-50
2021/11/17 07:47:41;;;;;;;0.30;0.20;;;;;;;7.50;100.00;100848.13;5060113;28;20591;-50
2021/11/17 07:50:08;;;;;;;0.30;0.20;;;;;;;7.42;100.00;100852.63;5066260;28;20553;-50
2021/11/17 07:52:36;;;;;;;0.30;0.20;;;;;;;7.42;100.00;100850.84;5066111;28;20446;-50
2021/11/17 07:55:05;;;;;;;0.30;0.20;;;;;;;7.52;100.00;100848.13;5059371;28;20473;-51
2021/11/17 07:57:32;;;;;;;0.30;0.20;;;;;;;7.52;100.00;100850.78;5059018;28;20886;-51
2021/11/17 07:59:59;;;;;;;0.30;0.20;;;;;;;7.40;100.00;100849.09;5065913;28;20446;-50
2021/11/17 08:02:26;;;;;;;0.30;0.20;;;;;;;7.42;100.00;100852.63;5065766;28;20503;-51
2021/11/17 08:04:53;;;;;;;0.30;0.20;;;;;;;7.46;100.00;100849.06;5044021;28;20462;-50
2021/11/17 08:07:20;;;;;;;0.30;0.20;;;;;;;7.68;100.00;100857.72;5052132;28;20474;-50
2021/11/17 08:09:49;;;;;;;0.30;0.20;;;;;;;7.94;100.00;100860.13;5064029;28;20447;-50
2021/11/17 08:12:18;;;;;;;0.30;0.20;;;;;;;7.83;100.00;100854.97;5057822;28;20544;-51
2021/11/17 08:14:45;;;;;;;0.30;0.20;;;;;;;7.54;100.00;100854.28;5062938;28;20474;-50
2021/11/17 08:17:12;;;;;;;0.30;0.20;;;;;;;7.53;100.00;100863.09;5065754;28;20462;-50
2021/11/17 08:19:38;;;;;;;0.30;0.20;;;;;;;7.58;100.00;100858.69;5062947;28;20536;-50
2021/11/17 08:22:09;;;;;;;0.30;0.10;;;;;;;7.49;100.00;100858.72;5059062;28;20924;-50
2021/11/17 08:24:38;;;;;;;0.30;0.20;;;;;;;7.54;100.00;100862.22;5061948;28;20541;-50
2021/11/17 08:27:18;;;;;;;0.30;0.20;;;;;;;7.60;100.00;100859.53;5065763;28;20508;-50
2021/11/17 08:29:49;;;;;;;0.30;0.20;;;;;;;7.61;100.00;100862.16;5065279;28;20446;-51
2021/11/17 08:32:17;;;;;;;0.30;0.20;;;;;;;7.94;100.00;100860.13;5049838;28;20490;-51
2021/11/17 08:34:44;;;;;;;0.30;0.20;;;;;;;7.83;100.00;100862.91;5065652;28;20469;-50
2021/11/17 08:37:11;;;;;;;0.30;0.20;;;;;;;7.86;100.00;100865.50;5060052;28;20446;-51
2021/11/17 08:39:41;;;;;;;0.30;0.20;;;;;;;7.67;100.00;100866.53;5058841;28;20446;-51
2021/11/17 08:42:09;;;;;;;0.27;0.20;;;;;;;7.72;100.00;100864.75;5063970;28;20447;-50
2021/11/17 08:44:38;;;;;;;0.30;0.20;;;;;;;7.87;100.00;100864.63;5065546;28;20523;-50
2021/11/17 08:47:07;;;;;;;0.30;0.20;;;;;;;7.96;100.00;100863.69;5061205;28;20943;-50
2021/11/17 08:49:34;;;;;;;0.30;0.17;;;;;;;7.80;100.00;100868.19;5058638;28;20451;-50
2021/11/17 08:52:02;;;;;;;0.30;0.20;;;;;;;7.76;100.00;100865.59;5062861;28;20569;-50
2021/11/17 08:54:29;;;;;;;0.30;0.20;;;;;;;7.68;100.00;100863.91;5066417;28;20471;-50
2021/11/17 08:56:58;;;;;;;0.30;0.20;;;;;;;7.89;100.00;100859.31;5063253;28;20454;-50
2021/11/17 08:59:26;;;;;;;0.30;0.20;;;;;;;7.91;100.00;100870.75;5058362;28;20958;-50
2021/11/17 09:01:57;;;;;;;0.30;0.20;;;;;;;8.00;100.00;100863.63;5059903;28;20446;-50
2021/11/17 09:04:24;;;;;;;0.30;0.20;;;;;;;7.95;100.00;100857.50;5065332;28;20600;-50
2021/11/17 09:06:51;;;;;;;0.30;0.20;;;;;;;7.89;100.00;100860.19;5063444;28;20484;-50
2021/11/17 09:09:19;;;;;;;0.30;0.30;;;;;;;8.17;100.00;100871.41;5061692;28;20450;-50
2021/11/17 09:11:46;;;;;;;0.30;0.20;;;;;;;7.94;100.00;100871.59;5054997;28;20590;-50
2021/11/17 09:14:15;;;;;;;0.30;0.20;;;;;;;7.94;100.00;100884.84;5059896;28;20473;-50
2021/11/17 09:16:45;;;;;;;0.30;0.20;;;;;;;8.14;100.00;100879.38;5063447;28;20455;-50
2021/11/17 09:19:11;;;;;;;0.30;0.20;;;;;;;8.00;100.00;100875.97;5069169;28;20507;-50
2021/11/17 09:21:41;;;;;;;0.30;0.20;;;;;;;8.30;100.00;100890.72;5069466;28;20450;-50
2021/11/17 09:24:10;;;;;;;0.30;0.20;;;;;;;8.22;100.00;100897.84;5068837;28;20470;-51
2021/11/17 09:26:39;;;;;;;0.30;0.20;;;;;;;7.96;100.00;100898.09;5069396;28;20446;-51
2021/11/17 09:29:06;;;;;;;0.30;0.20;;;;;;;8.04;100.00;100901.53;5063969;28;20450;-50
2021/11/17 09:31:34;;;;;;;0.30;0.20;;;;;;;8.08;100.00;100903.25;5061896;28;21007;-51
2021/11/17 09:34:01;;;;;;;0.30;0.20;;;;;;;8.10;100.00;100903.25;5067279;28;20477;-50
2021/11/17 09:36:30;;;;;;;0.30;0.20;;;;;;;8.32;100.00;100907.47;5068686;28;20445;-50
2021/11/17 09:38:58;;;;;;;0.30;0.20;;;;;;;8.23;100.00;100910.22;5064931;28;20504;-50
2021/11/17 09:41:32;;;;;;;0.30;0.20;;;;;;;8.08;100.00;100919.13;5061730;28;20473;-50
2021/11/17 09:44:03;;;;;;;0.30;0.20;;;;;;;7.96;100.00;100924.56;5064965;28;20836;-50
2021/11/17 09:46:35;;;;;;;0.30;0.20;;;;;;;8.12;100.00;100918.25;5068738;28;20451;-50
2021/11/17 09:49:14;;;;;;;0.30;0.20;;;;;;;8.15;100.00;100918.22;5067362;28;20793;-50
2021/11/17 09:51:48;;;;;;;0.30;0.20;;;;;;;8.17;100.00;100916.41;5049674;28;20489;-50
2021/11/17 09:54:45;;;;;;;0.30;0.20;;;;;;;8.31;100.00;100917.19;5061911;28;20462;-50
2021/11/17 09:57:16;;;;;;;0.30;0.20;;;;;;;8.35;100.00;100920.69;5062831;28;20523;-51
2021/11/17 10:00:04;;;;;;;0.30;0.20;;;;;;;8.44;100.00;100922.41;5068379;28;20473;-50
2021/11/17 10:02:40;;;;;;;0.30;0.20;;;;;;;8.55;100.00;100923.16;5068093;28;20532;-51
2021/11/17 10:05:15;;;;;;;0.30;0.20;;;;;;;8.32;100.00;100920.69;5044960;28;20982;-50
2021/11/17 10:13:49;;;;;;;0.30;0.20;;;;;;;8.46;100.00;100920.59;5073462;22;20481;-53
2021/11/17 10:16:17;;;;;;;0.30;0.20;;;;;;;8.56;100.00;100919.63;5003313;28;20834;-52
2021/11/17 10:19:11;;;;;;;0.30;0.20;;;;;;;8.59;100.00;100923.13;5001877;28;20457;-53
2021/11/17 10:21:38;;;;;;;0.30;0.20;;;;;;;8.55;100.00;100918.75;5002908;28;20445;-53
2021/11/17 10:24:14;;;;;;;0.30;0.20;;;;;;;8.65;100.00;100921.31;5008637;28;20500;-52
2021/11/17 10:26:48;;;;;;;0.30;0.20;;;;;;;8.52;100.00;100923.22;5009280;28;20463;-52
2021/11/17 10:29:32;;;;;;;0.30;0.20;;;;;;;8.50;100.00;100923.22;5004332;28;20445;-52
2021/11/17 10:32:01;;;;;;;0.30;0.20;;;;;;;8.69;100.00;100923.03;5002627;28;20492;-53
2021/11/17 10:34:35;;;;;;;0.30;0.20;;;;;;;8.81;100.00;100920.25;5004612;28;20470;-52
2021/11/17 10:37:23;;;;;;;0.30;0.20;;;;;;;9.10;100.00;100927.84;5009691;28;20445;-52
2021/11/17 10:39:50;;;;;;;0.30;0.20;;;;;;;8.68;100.00;100921.28;5008176;28;20445;-52
2021/11/17 10:42:20;;;;;;;0.30;0.20;;;;;;;8.76;100.00;100922.06;5004439;28;21000;-52
2021/11/17 10:44:52;;;;;;;0.30;0.20;;;;;;;8.88;100.00;100901.59;5001583;28;20473;-52
2021/11/17 10:47:27;;;;;;;0.30;0.20;;;;;;;8.89;100.00;100900.69;5004998;28;20478;-53
2021/11/17 10:49:54;;;;;;;0.30;0.20;;;;;;;8.97;100.00;100903.25;5008273;28;20508;-53
2021/11/17 10:52:46;;;;;;;0.30;0.20;;;;;;;8.85;100.00;100903.41;5008203;28;20997;-51
2021/11/17 10:55:44;;;;;;;0.30;0.20;;;;;;;9.12;100.00;100897.75;5003574;28;20850;-52
2021/11/17 10:58:18;;;;;;;0.30;0.20;;;;;;;9.17;99.71;100906.53;5008199;28;20465;-53
2021/11/17 11:00:58;;;;;;;0.30;0.20;;;;;;;9.15;100.00;100910.09;5006632;28;20453;-53
2021/11/17 11:03:29;;;;;;;0.30;0.20;;;;;;;9.06;100.00;100903.16;5005556;28;20540;-53
2021/11/17 11:06:16;;;;;;;0.30;0.20;;;;;;;9.10;100.00;100907.53;5011540;28;20484;-53
2021/11/17 11:08:56;;;;;;;0.30;0.20;;;;;;;9.03;100.00;100907.59;4994034;28;20449;-52
2021/11/17 11:11:23;;;;;;;0.30;0.20;;;;;;;9.03;100.00;100916.44;5005283;28;20547;-52
2021/11/17 11:14:07;;;;;;;0.63;0.63;;;;;;;9.15;100.00;100916.28;5007750;28;20480;-52
2021/11/17 11:16:47;;;;;;;0.30;0.20;;;;;;;9.02;100.00;100901.41;5008054;28;20445;-51
2021/11/17 11:19:14;;;;;;;0.30;0.20;;;;;;;9.14;100.00;100903.03;4990669;28;20457;-51
2021/11/17 11:21:43;;;;;;;0.30;0.20;;;;;;;9.20;100.00;100897.69;5002120;28;20448;-51
2021/11/17 11:24:50;;;;;;;0.30;0.20;;;;;;;9.37;100.00;100906.28;5007669;28;20505;-52
2021/11/17 11:27:33;;;;;;;0.30;0.20;;;;;;;9.25;99.65;100926.78;4989431;28;20452;-52
2021/11/17 11:30:02;;;;;;;0.30;0.20;;;;;;;9.41;99.28;100923.91;5001311;28;20450;-52
2021/11/17 11:32:29;;;;;;;0.30;0.20;;;;;;;9.27;99.92;100925.84;5007650;28;20490;-52
2021/11/17 11:34:58;;;;;;;0.30;0.20;;;;;;;9.40;99.15;100921.28;5002133;28;20472;-52
2021/11/17 11:37:25;;;;;;;0.30;0.20;;;;;;;9.29;99.17;100921.41;5005664;28;20458;-52
2021/11/17 11:39:54;;;;;;;0.30;0.20;;;;;;;9.28;99.40;100924.09;5009569;28;20565;-52
2021/11/17 11:42:26;;;;;;;0.30;0.20;;;;;;;9.43;98.71;100922.09;5005807;28;20502;-51
2021/11/17 11:45:21;;;;;;;0.30;0.20;;;;;;;9.36;99.17;100917.78;5002244;28;20465;-52
2021/11/17 11:47:51;;;;;;;0.30;0.20;;;;;;;9.23;99.35;100923.28;5002181;28;20508;-52
2021/11/17 11:50:31;;;;;;;0.30;0.20;;;;;;;9.52;98.86;100922.88;5006496;28;20997;-52
2021/11/17 11:53:06;;;;;;;0.30;0.20;;;;;;;9.50;98.17;100917.59;5009150;28;21013;-52
2021/11/17 11:55:52;;;;;;;0.30;0.20;;;;;;;9.62;98.23;100924.50;5007081;28;20469;-52
2021/11/17 11:58:18;;;;;;;0.30;0.20;;;;;;;9.54;98.75;100919.31;5003895;28;20863;-52
2021/11/17 12:00:59;;;;;;;0.30;0.20;;;;;;;9.66;98.14;100918.25;5002464;28;20508;-51
2021/11/17 12:03:32;;;;;;;0.30;0.20;;;;;;;9.79;98.10;100920.69;5004975;28;20510;-52
2021/11/17 12:06:06;;;;;;;0.30;0.20;;;;;;;9.90;97.46;100931.16;5013002;28;20479;-52
2021/11/17 12:08:34;;;;;;;0.30;0.20;;;;;;;9.72;97.31;100928.75;5003716;28;20508;-52
2021/11/17 12:11:01;;;;;;;0.30;0.20;;;;;;;9.90;97.33;100927.63;5008797;28;20457;-52
2021/11/17 12:13:31;;;;;;;0.30;0.20;;;;;;;9.85;97.51;100914.41;5006714;28;20492;-53
2021/11/17 12:16:03;;;;;;;0.30;0.20;;;;;;;9.92;97.23;100915.19;5000730;28;20507;-52
2021/11/17 12:18:44;;;;;;;0.30;0.20;;;;;;;10.14;96.21;100911.28;5001096;28;20806;-52
2021/11/17 12:21:34;;;;;;;0.30;0.20;;;;;;;9.87;96.37;100914.38;5003216;28;20419;-53
2021/11/17 12:24:00;;;;;;;0.30;0.20;;;;;;;9.88;97.63;100924.13;4987366;28;20473;-53
2021/11/17 12:26:27;;;;;;;0.30;0.20;;;;;;;9.82;97.49;100933.03;5005176;28;20933;-53
2021/11/17 12:29:03;;;;;;;0.30;0.20;;;;;;;9.82;97.55;100924.22;4999796;28;20448;-53
2021/11/17 12:31:40;;;;;;;0.30;0.20;;;;;;;9.88;96.52;100922.34;5000041;28;20477;-52
2021/11/17 12:34:21;;;;;;;0.30;0.20;;;;;;;9.67;98.08;100920.88;4990780;28;20468;-53
2021/11/17 12:37:00;;;;;;;0.30;0.20;;;;;;;9.78;97.96;100921.59;4999616;28;20523;-53
2021/11/17 12:39:34;;;;;;;0.30;0.20;;;;;;;9.71;97.49;100919.06;5001630;28;20461;-53
2021/11/17 12:42:06;;;;;;;0.30;0.20;;;;;;;9.77;97.39;100914.53;5006268;28;20508;-53
2021/11/17 12:44:45;;;;;;;0.30;0.20;;;;;;;9.57;97.76;100908.63;5006556;28;20464;-53
2021/11/17 12:47:14;;;;;;;0.30;0.20;;;;;;;9.88;97.34;100919.69;5002240;28;20449;-53
2021/11/17 12:49:47;;;;;;;0.30;0.20;;;;;;;9.86;97.22;100909.97;4999487;28;21002;-53
2021/11/17 12:52:34;;;;;;;0.30;0.20;;;;;;;9.90;98.46;100907.25;5002292;28;20544;-53
2021/11/17 12:55:06;;;;;;;0.30;0.20;;;;;;;9.78;98.33;100915.41;4986989;28;20472;-53
2021/11/17 12:57:41;;;;;;;0.30;0.20;;;;;;;9.52;98.99;100910.50;4999585;28;20449;-53
2021/11/17 13:00:13;;;;;;;0.30;0.20;;;;;;;10.00;98.47;100902.66;5004039;28;20448;-53
2021/11/17 13:02:57;;;;;;;0.30;0.20;;;;;;;9.79;99.00;100914.50;5005896;28;20465;-53
2021/11/17 13:05:40;;;;;;;0.30;0.20;;;;;;;9.86;98.68;100908.19;5005901;28;20439;-53
2021/11/17 13:08:06;;;;;;;0.30;0.20;;;;;;;10.14;97.52;100916.59;4989978;28;20448;-52
2021/11/17 13:10:43;;;;;;;0.30;0.20;;;;;;;9.92;98.73;100915.19;4999259;28;20453;-52
2021/11/17 13:13:13;;;;;;;0.30;0.20;;;;;;;9.92;98.65;100909.91;5002466;28;20916;-53
2021/11/17 13:15:46;;;;;;;0.30;0.20;;;;;;;9.88;99.37;100917.03;4999087;28;20480;-53
2021/11/17 13:18:45;;;;;;;0.30;0.20;;;;;;;9.94;99.15;100913.41;5001261;28;20504;-53
2021/11/17 13:21:21;;;;;;;0.30;0.20;;;;;;;10.13;98.60;100916.63;4974467;28;20450;-52
2021/11/17 13:24:10;;;;;;;0.30;0.20;;;;;;;10.09;97.34;100914.03;5006516;28;20552;-53
2021/11/17 13:26:48;;;;;;;0.30;0.20;;;;;;;10.04;98.80;100913.22;5006204;28;20523;-52
2021/11/17 13:29:29;;;;;;;0.30;0.20;;;;;;;9.94;98.58;100908.97;5001483;28;20445;-53
2021/11/17 13:32:02;;;;;;;0.30;0.20;;;;;;;10.04;97.84;100905.25;4998686;28;20907;-53
2021/11/17 13:34:40;;;;;;;0.30;0.20;;;;;;;9.93;98.23;100901.03;5001144;28;20482;-53
2021/11/17 13:37:34;;;;;;;0.30;0.20;;;;;;;9.84;99.73;100906.47;5006030;28;20445;-53
2021/11/17 13:40:09;;;;;;;0.30;0.20;;;;;;;9.73;99.51;100907.53;5004703;28;20991;-53
2021/11/17 13:42:36;;;;;;;0.30;0.20;;;;;;;9.72;99.68;100916.38;5003983;28;20414;-52
2021/11/17 13:45:11;;;;;;;0.30;0.20;;;;;;;9.72;100.00;100907.53;4999091;28;20530;-53
2021/11/17 13:47:37;;;;;;;0.30;0.20;;;;;;;9.75;99.90;100913.69;4999717;28;20511;-53
2021/11/17 13:50:07;;;;;;;0.30;0.20;;;;;;;9.69;100.00;100913.78;5006239;28;20461;-53
2021/11/17 13:52:36;;;;;;;0.30;0.20;;;;;;;9.81;100.00;100912.72;5005121;28;20534;-52
2021/11/17 13:55:06;;;;;;;0.30;0.20;;;;;;;9.76;100.00;100917.22;5002755;28;20472;-53
2021/11/17 13:57:33;;;;;;;0.30;0.20;;;;;;;9.79;100.00;100919.81;5002633;28;20822;-53
2021/11/17 14:00:02;;;;;;;0.30;0.20;;;;;;;9.76;100.00;100918.09;5007463;28;20461;-53
2021/11/17 14:02:29;;;;;;;0.30;0.20;;;;;;;9.66;100.00;100918.25;5009130;28;20444;-53
2021/11/17 14:04:56;;;;;;;0.30;0.20;;;;;;;9.87;100.00;100914.38;4995188;28;20479;-53
2021/11/17 14:07:24;;;;;;;0.30;0.20;;;;;;;9.63;100.00;100916.53;5002273;28;20508;-53
2021/11/17 14:09:51;;;;;;;1.80;1.80;;;;;;;9.56;100.00;100922.81;5006630;28;20453;-53
2021/11/17 14:12:20;;;;;;;0.30;0.20;;;;;;;9.51;100.00;100924.66;5000881;28;20905;-53
2021/11/17 14:14:47;;;;;;;0.30;0.20;;;;;;;9.46;100.00;100910.59;5005372;28;20481;-53
2021/11/17 14:17:14;;;;;;;0.30;0.20;;;;;;;9.45;100.00;100919.41;5008795;28;20449;-53
2021/11/17 14:19:40;;;;;;;0.30;0.20;;;;;;;9.44;100.00;100928.28;5005795;28;20576;-53
2021/11/17 14:22:07;;;;;;;0.40;0.30;;;;;;;9.41;100.00;100928.31;5002228;28;20827;-53
2021/11/17 14:24:35;;;;;;;0.30;0.20;;;;;;;9.38;100.00;100931.03;5005902;28;20545;-52
2021/11/17 14:27:05;;;;;;;0.30;0.20;;;;;;;9.28;100.00;100927.63;5009468;28;20461;-53
2021/11/17 14:29:37;;;;;;;0.30;0.20;;;;;;;9.23;100.00;100921.50;5007649;28;20839;-53
2021/11/17 14:32:15;;;;;;;0.30;0.20;;;;;;;9.25;100.00;100927.66;5002499;28;20488;-53
2021/11/17 14:34:41;;;;;;;0.30;0.20;;;;;;;9.26;100.00;100928.53;5014880;28;20503;-52
2021/11/17 14:37:09;;;;;;;0.30;0.20;;;;;;;9.36;100.00;100935.47;5003070;28;20987;-53
2021/11/17 14:39:40;;;;;;;0.30;0.20;;;;;;;9.30;100.00;100938.19;5001505;28;20453;-53